createdAt,value
2023-05-11T00:02:27.534Z,11.00
2023-05-11T00:04:55.831Z,11.00
2023-05-11T00:07:23.559Z,11.00
2023-05-11T00:09:51.465Z,11.10
2023-05-11T00:12:19.185Z,11.10
2023-05-11T00:14:46.917Z,11.10
2023-05-11T00:17:14.669Z,11.10
2023-05-11T00:19:42.326Z,11.00
2023-05-11T00:22:10.014Z,11.00
2023-05-11T00:24:37.687Z,11.00
2023-05-11T00:27:06.111Z,10.90
2023-05-11T00:29:33.809Z,10.90
2023-05-11T00:32:01.476Z,10.90
2023-05-11T00:34:29.302Z,11.00
2023-05-11T00:36:57.037Z,11.00
2023-05-11T00:39:24.715Z,11.00
2023-05-11T00:41:52.390Z,11.00
2023-05-11T00:44:20.012Z,11.00
2023-05-11T00:46:47.832Z,10.90
2023-05-11T00:49:17.392Z,10.90
2023-05-11T00:51:45.359Z,10.90
2023-05-11T00:54:15.560Z,10.90
2023-05-11T00:56:43.386Z,10.90
2023-05-11T00:59:11.413Z,10.90
2023-05-11T01:01:39.645Z,10.80
2023-05-11T01:04:07.562Z,10.80
2023-05-11T01:07:09.650Z,10.80
2023-05-11T01:10:04.744Z,10.80
2023-05-11T01:12:59.753Z,10.80
2023-05-11T01:15:46.877Z,10.80
2023-05-11T01:18:22.591Z,10.80
2023-05-11T01:20:56.996Z,10.80
2023-05-11T01:23:45.036Z,10.80
2023-05-11T01:27:10.875Z,10.80
2023-05-11T01:30:25.620Z,10.70
2023-05-11T01:32:59.321Z,10.70
2023-05-11T01:35:27.903Z,10.70
2023-05-11T01:37:58.871Z,10.70
2023-05-11T01:40:29.609Z,10.80
2023-05-11T01:43:18.924Z,10.70
2023-05-11T01:45:51.256Z,10.80
2023-05-11T01:48:26.331Z,10.80
2023-05-11T01:51:00.680Z,10.80
2023-05-11T01:53:35.988Z,10.80
2023-05-11T01:56:06.026Z,10.70
2023-05-11T01:58:36.261Z,10.70
2023-05-11T02:01:04.844Z,10.60
2023-05-11T02:03:35.731Z,10.60
2023-05-11T02:06:05.715Z,10.60
2023-05-11T02:08:38.273Z,10.60
2023-05-11T02:11:07.959Z,10.60
2023-05-11T02:13:39.358Z,10.60
2023-05-11T02:16:09.271Z,10.60
2023-05-11T02:18:43.616Z,10.60
2023-05-11T02:21:12.505Z,10.60
2023-05-11T02:23:41.998Z,10.70
2023-05-11T02:26:11.460Z,10.60
2023-05-11T02:28:39.782Z,10.70
2023-05-11T02:31:17.201Z,10.60
2023-05-11T02:33:51.608Z,10.70
2023-05-11T02:36:22.848Z,10.70
2023-05-11T02:39:04.276Z,10.70
2023-05-11T02:41:33.474Z,10.70
2023-05-11T02:44:05.218Z,10.60
2023-05-11T02:46:37.380Z,10.60
2023-05-11T02:49:09.357Z,10.70
2023-05-11T02:51:39.377Z,10.70
2023-05-11T02:54:12.872Z,10.60
2023-05-11T02:56:45.772Z,10.70
2023-05-11T02:59:14.500Z,10.60
2023-05-11T03:01:42.977Z,10.70
2023-05-11T03:04:12.090Z,10.70
2023-05-11T03:06:39.871Z,10.70
2023-05-11T03:09:10.269Z,10.70
2023-05-11T03:11:43.818Z,10.70
2023-05-11T03:14:12.751Z,10.70
2023-05-11T03:16:42.268Z,10.80
2023-05-11T03:19:10.759Z,10.80
2023-05-11T03:21:39.887Z,10.80
2023-05-11T03:24:08.840Z,10.80
2023-05-11T03:26:37.252Z,10.80
2023-05-11T03:29:08.651Z,10.80
2023-05-11T03:31:36.470Z,10.80
2023-05-11T03:34:04.322Z,10.80
2023-05-11T03:36:38.781Z,10.80
2023-05-11T03:39:09.154Z,10.90
2023-05-11T03:41:40.993Z,10.90
2023-05-11T03:44:12.582Z,11.00
2023-05-11T03:46:44.090Z,10.90
2023-05-11T03:49:13.825Z,10.90
2023-05-11T03:51:44.036Z,10.90
2023-05-11T03:54:12.847Z,10.90
2023-05-11T03:56:41.162Z,11.00
2023-05-11T03:59:09.836Z,10.90
2023-05-11T04:01:37.829Z,11.00
2023-05-11T04:04:05.939Z,11.00
2023-05-11T04:06:33.754Z,11.00
2023-05-11T04:09:09.366Z,11.10
2023-05-11T04:11:40.112Z,11.10
2023-05-11T04:14:07.844Z,11.10
2023-05-11T04:16:35.976Z,11.10
2023-05-11T04:19:03.994Z,11.10
2023-05-11T04:21:32.665Z,11.20
2023-05-11T04:24:00.915Z,11.20
2023-05-11T04:26:28.955Z,11.20
2023-05-11T04:28:56.588Z,11.20
2023-05-11T04:31:24.420Z,11.20
2023-05-11T04:33:52.152Z,11.30
2023-05-11T04:36:20.438Z,11.30
2023-05-11T04:38:48.395Z,11.30
2023-05-11T04:41:16.748Z,11.30
2023-05-11T04:43:45.698Z,11.30
2023-05-11T04:46:14.250Z,11.40
2023-05-11T04:48:42.328Z,11.40
2023-05-11T04:51:10.913Z,11.40
2023-05-11T04:53:45.337Z,11.40
2023-05-11T04:56:13.225Z,11.40
2023-05-11T04:58:41.058Z,11.50
2023-05-11T05:01:09.924Z,11.50
2023-05-11T05:03:37.733Z,11.60
2023-05-11T05:06:05.580Z,11.60
2023-05-11T05:08:33.381Z,11.60
2023-05-11T05:11:01.245Z,11.70
2023-05-11T05:13:29.062Z,11.70
2023-05-11T05:15:56.834Z,11.80
2023-05-11T05:18:24.680Z,11.90
2023-05-11T05:20:52.365Z,12.00
2023-05-11T05:23:20.986Z,12.10
2023-05-11T05:25:48.609Z,12.20
2023-05-11T05:28:16.416Z,12.30
2023-05-11T05:30:44.447Z,12.40
2023-05-11T05:33:12.326Z,12.50
2023-05-11T05:35:40.248Z,12.50
2023-05-11T05:38:08.274Z,12.50
2023-05-11T05:40:37.758Z,12.60
2023-05-11T05:43:06.753Z,12.70
2023-05-11T05:45:34.682Z,12.80
2023-05-11T05:48:05.288Z,12.90
2023-05-11T05:50:34.385Z,12.90
2023-05-11T05:53:02.678Z,12.90
2023-05-11T05:55:31.629Z,13.00
2023-05-11T05:58:02.439Z,13.00
2023-05-11T06:00:31.248Z,13.10
2023-05-11T06:03:05.209Z,13.20
2023-05-11T06:05:33.007Z,13.20
2023-05-11T06:08:09.666Z,13.30
2023-05-11T06:10:39.876Z,13.30
2023-05-11T06:13:09.709Z,13.40
2023-05-11T06:15:41.053Z,13.50
2023-05-11T06:18:18.150Z,13.60
2023-05-11T06:20:46.173Z,13.70
2023-05-11T06:23:15.815Z,13.70
2023-05-11T06:25:45.012Z,13.80
2023-05-11T06:28:13.123Z,13.90
2023-05-11T06:30:41.701Z,13.90
2023-05-11T06:33:10.504Z,14.00
2023-05-11T06:35:39.873Z,14.20
2023-05-11T06:38:10.116Z,14.30
2023-05-11T06:40:38.289Z,14.40
2023-05-11T06:43:06.511Z,14.40
2023-05-11T06:45:48.221Z,14.60
2023-05-11T06:48:16.363Z,14.70
2023-05-11T06:50:44.165Z,14.60
2023-05-11T06:53:14.296Z,14.80
2023-05-11T06:55:42.133Z,14.80
2023-05-11T06:58:10.106Z,14.80
2023-05-11T07:00:37.730Z,14.80
2023-05-11T07:03:06.467Z,14.80
2023-05-11T07:05:35.988Z,14.70
2023-05-11T07:08:05.018Z,14.60
2023-05-11T07:10:32.926Z,14.60
2023-05-11T07:13:00.563Z,14.50
2023-05-11T07:15:28.452Z,14.50
2023-05-11T07:17:56.133Z,14.50
2023-05-11T07:20:23.923Z,14.60
2023-05-11T07:22:51.594Z,14.70
2023-05-11T07:25:19.407Z,14.70
2023-05-11T07:27:47.070Z,14.70
2023-05-11T07:30:15.764Z,14.80
2023-05-11T07:32:44.451Z,14.90
2023-05-11T07:35:12.319Z,14.90
2023-05-11T07:37:39.962Z,15.00
2023-05-11T07:40:08.746Z,15.00
2023-05-11T07:42:36.486Z,15.10
2023-05-11T07:45:04.511Z,15.20
2023-05-11T07:47:33.627Z,15.20
2023-05-11T07:50:02.992Z,15.20
2023-05-11T07:52:30.706Z,15.30
2023-05-11T07:54:58.403Z,15.30
2023-05-11T07:57:26.174Z,15.30
2023-05-11T07:59:53.905Z,15.40
2023-05-11T08:02:21.604Z,15.30
2023-05-11T08:04:49.627Z,15.20
2023-05-11T08:07:17.460Z,15.40
2023-05-11T08:09:45.233Z,15.40
2023-05-11T08:12:13.361Z,15.40
2023-05-11T08:14:43.234Z,15.50
2023-05-11T08:17:10.977Z,15.60
2023-05-11T08:19:38.936Z,15.80
2023-05-11T08:22:06.578Z,15.90
2023-05-11T08:24:34.307Z,15.90
2023-05-11T08:27:02.792Z,16.00
2023-05-11T08:29:31.532Z,16.00
2023-05-11T08:31:59.266Z,16.00
2023-05-11T08:34:27.610Z,15.80
2023-05-11T08:36:56.112Z,15.70
2023-05-11T08:39:43.257Z,15.80
2023-05-11T08:42:15.882Z,15.60
2023-05-11T08:44:45.185Z,15.60
2023-05-11T08:49:43.782Z,15.10
2023-05-11T08:52:13.040Z,15.20
2023-05-11T08:54:40.719Z,15.20
2023-05-11T08:57:10.384Z,15.30
2023-05-11T08:59:38.897Z,15.60
2023-05-11T09:02:07.383Z,15.70
2023-05-11T09:04:37.367Z,15.70
2023-05-11T09:07:05.636Z,15.70
2023-05-11T09:09:34.008Z,15.50
2023-05-11T09:12:02.185Z,15.30
2023-05-11T09:14:30.000Z,15.40
2023-05-11T09:16:58.858Z,15.30
2023-05-11T09:19:26.614Z,15.30
2023-05-11T09:21:54.501Z,15.40
2023-05-11T09:24:22.777Z,15.60
2023-05-11T09:27:06.608Z,15.70
2023-05-11T09:29:34.366Z,15.60
2023-05-11T09:32:02.099Z,15.60
2023-05-11T09:34:29.855Z,15.70
2023-05-11T09:36:58.266Z,15.90
2023-05-11T09:39:41.267Z,16.20
2023-05-11T09:42:22.005Z,16.40
2023-05-11T09:44:49.709Z,16.80
2023-05-11T09:47:20.024Z,16.80
2023-05-11T09:49:48.692Z,16.60
2023-05-11T09:52:21.300Z,16.70
2023-05-11T09:54:51.897Z,16.70
2023-05-11T09:57:31.927Z,16.80
2023-05-11T10:00:00.620Z,17.10
2023-05-11T10:02:32.514Z,17.20
2023-05-11T10:05:02.044Z,17.10
2023-05-11T10:07:39.384Z,16.90
2023-05-11T10:10:09.819Z,17.10
2023-05-11T10:12:40.558Z,17.20
2023-05-11T10:15:10.683Z,17.20
2023-05-11T10:17:38.633Z,16.90
2023-05-11T10:20:07.504Z,17.10
2023-05-11T10:22:35.738Z,16.80
2023-05-11T10:25:06.082Z,16.70
2023-05-11T10:27:34.110Z,16.40
2023-05-11T10:30:03.984Z,16.50
2023-05-11T10:32:32.987Z,16.80
2023-05-11T10:35:00.857Z,17.00
2023-05-11T10:37:29.140Z,17.10
2023-05-11T10:39:58.071Z,17.10
2023-05-11T10:42:56.805Z,17.10
2023-05-11T10:45:41.732Z,17.00
2023-05-11T10:48:50.192Z,17.50
2023-05-11T10:51:35.844Z,18.00
2023-05-11T10:54:24.619Z,18.00
2023-05-11T10:57:27.313Z,17.70
2023-05-11T11:00:49.947Z,17.80
2023-05-11T11:03:18.111Z,18.20
2023-05-11T11:05:46.482Z,18.20
2023-05-11T11:08:14.429Z,18.60
2023-05-11T11:10:50.119Z,18.70
2023-05-11T11:13:20.012Z,18.80
2023-05-11T11:15:54.367Z,18.80
2023-05-11T11:18:34.834Z,18.90
2023-05-11T11:21:04.259Z,19.50
2023-05-11T11:23:50.369Z,19.80
2023-05-11T11:26:46.089Z,19.70
2023-05-11T11:29:13.986Z,19.50
2023-05-11T11:31:42.325Z,19.30
2023-05-11T11:34:28.092Z,19.10
2023-05-11T11:36:55.880Z,19.10
2023-05-11T11:39:29.042Z,18.90
2023-05-11T11:42:09.502Z,18.80
2023-05-11T11:44:38.611Z,18.50
2023-05-11T11:47:20.245Z,18.80
2023-05-11T11:49:54.056Z,18.90
2023-05-11T11:52:28.006Z,19.40
2023-05-11T11:54:59.794Z,19.30
2023-05-11T11:57:33.350Z,19.10
2023-05-11T12:00:10.978Z,19.30
2023-05-11T12:02:46.284Z,19.40
2023-05-11T12:05:20.161Z,19.20
2023-05-11T12:07:52.987Z,18.90
2023-05-11T12:10:23.894Z,18.80
2023-05-11T12:12:55.136Z,18.50
2023-05-11T12:15:32.342Z,17.90
2023-05-11T12:18:02.820Z,17.40
2023-05-11T12:20:33.293Z,17.00
2023-05-11T12:23:01.916Z,16.60
2023-05-11T12:25:29.586Z,16.40
2023-05-11T12:28:02.176Z,16.30
2023-05-11T12:30:33.494Z,16.30
2023-05-11T12:33:04.440Z,16.10
2023-05-11T12:35:34.242Z,16.00
2023-05-11T12:38:03.031Z,16.10
2023-05-11T12:40:31.688Z,16.00
2023-05-11T12:43:00.862Z,16.00
2023-05-11T12:45:29.506Z,16.00
2023-05-11T12:47:58.524Z,15.70
2023-05-11T12:50:26.340Z,15.50
2023-05-11T12:52:54.237Z,15.20
2023-05-11T12:55:29.920Z,15.10
2023-05-11T12:58:15.124Z,14.80
2023-05-11T13:00:58.175Z,14.60
2023-05-11T13:03:32.659Z,14.40
2023-05-11T13:06:13.701Z,14.30
2023-05-11T13:08:46.725Z,14.20
2023-05-11T13:11:23.148Z,14.10
2023-05-11T13:13:55.684Z,14.00
2023-05-11T13:16:32.627Z,14.10
2023-05-11T13:19:02.132Z,14.10
2023-05-11T13:21:32.748Z,14.20
2023-05-11T13:24:02.191Z,14.10
2023-05-11T13:26:31.552Z,13.90
2023-05-11T13:29:10.216Z,13.60
2023-05-11T13:31:50.442Z,13.50
2023-05-11T13:34:20.015Z,13.30
2023-05-11T13:36:48.351Z,13.20
2023-05-11T13:39:16.150Z,13.20
2023-05-11T13:41:44.066Z,13.20
2023-05-11T13:44:11.854Z,13.00
2023-05-11T13:46:39.753Z,13.10
2023-05-11T13:49:08.547Z,13.10
2023-05-11T13:51:36.391Z,13.10
2023-05-11T13:54:04.220Z,13.10
2023-05-11T13:56:31.893Z,13.00
2023-05-11T13:59:00.193Z,12.80
2023-05-11T14:01:28.136Z,12.80
2023-05-11T14:03:56.697Z,12.70
2023-05-11T14:06:25.672Z,12.60
2023-05-11T14:08:54.358Z,12.60
2023-05-11T14:11:22.973Z,12.60
2023-05-11T14:13:51.963Z,12.60
2023-05-11T14:16:20.384Z,12.70
2023-05-11T14:18:50.291Z,12.70
2023-05-11T14:21:18.236Z,12.80
2023-05-11T14:24:01.964Z,12.80
2023-05-11T14:26:33.621Z,12.70
2023-05-11T14:29:01.315Z,12.60
2023-05-11T14:31:29.618Z,12.60
2023-05-11T14:33:57.448Z,12.50
2023-05-11T14:36:25.202Z,12.50
2023-05-11T14:38:52.938Z,12.40
2023-05-11T14:41:21.375Z,12.50
2023-05-11T14:43:49.566Z,12.60
2023-05-11T14:46:18.732Z,12.60
2023-05-11T14:48:46.533Z,12.70
2023-05-11T14:51:14.608Z,12.80
2023-05-11T14:53:42.315Z,12.90
2023-05-11T14:56:10.310Z,12.80
2023-05-11T14:58:37.967Z,12.80
2023-05-11T15:01:05.752Z,12.90
2023-05-11T15:03:33.389Z,12.90
2023-05-11T15:06:01.166Z,12.90
2023-05-11T15:08:30.609Z,12.90
2023-05-11T15:10:59.205Z,13.10
2023-05-11T15:13:27.143Z,13.10
2023-05-11T15:15:54.823Z,13.20
2023-05-11T15:18:22.559Z,13.30
2023-05-11T15:20:50.349Z,13.30
2023-05-11T15:23:18.176Z,13.40
2023-05-11T15:25:46.260Z,13.60
2023-05-11T15:28:14.196Z,13.70
2023-05-11T15:30:42.277Z,13.70
2023-05-11T15:33:10.699Z,13.80
2023-05-11T15:35:38.572Z,13.80
2023-05-11T15:38:06.632Z,13.80
2023-05-11T15:40:34.429Z,13.90
2023-05-11T15:43:02.148Z,13.90
2023-05-11T15:45:30.384Z,13.90
2023-05-11T15:47:58.732Z,14.00
2023-05-11T15:50:26.493Z,14.10
2023-05-11T15:52:54.264Z,14.20
2023-05-11T15:55:23.482Z,14.30
2023-05-11T15:57:51.202Z,14.50
2023-05-11T16:00:19.991Z,14.50
2023-05-11T16:02:49.032Z,14.60
2023-05-11T16:05:17.065Z,14.50
2023-05-11T16:07:44.762Z,14.50
2023-05-11T16:10:12.492Z,14.50
2023-05-11T16:12:40.177Z,14.50
2023-05-11T16:15:08.624Z,14.60
2023-05-11T16:17:36.486Z,14.70
2023-05-11T16:20:05.097Z,14.80
2023-05-11T16:22:32.772Z,14.80
2023-05-11T16:25:00.568Z,14.90
2023-05-11T16:27:28.194Z,14.90
2023-05-11T16:29:55.853Z,14.90
2023-05-11T16:32:24.102Z,14.90
2023-05-11T16:34:51.908Z,14.80
2023-05-11T16:37:19.654Z,14.60
2023-05-11T16:39:47.314Z,14.60
2023-05-11T16:42:15.075Z,14.50
2023-05-11T16:44:42.729Z,14.50
2023-05-11T16:47:10.405Z,14.60
2023-05-11T16:49:38.026Z,14.60
2023-05-11T16:52:06.343Z,14.60
2023-05-11T16:54:34.007Z,14.60
2023-05-11T16:57:01.802Z,14.60
2023-05-11T16:59:29.610Z,14.50
2023-05-11T17:01:57.317Z,14.60
2023-05-11T17:04:25.021Z,14.60
2023-05-11T17:06:53.663Z,14.70
2023-05-11T17:09:21.809Z,14.80
2023-05-11T17:11:49.454Z,14.70
2023-05-11T17:14:17.120Z,14.70
2023-05-11T17:16:45.022Z,14.80
2023-05-11T17:19:12.984Z,14.90
2023-05-11T17:21:41.273Z,15.10
2023-05-11T17:24:09.057Z,15.10
2023-05-11T17:26:47.005Z,15.10
2023-05-11T17:29:17.131Z,15.00
2023-05-11T17:31:48.766Z,14.90
2023-05-11T17:34:18.494Z,14.90
2023-05-11T17:36:46.271Z,14.90
2023-05-11T17:39:13.968Z,15.10
2023-05-11T17:41:41.768Z,15.20
2023-05-11T17:44:09.710Z,15.20
2023-05-11T17:46:37.455Z,15.20
2023-05-11T17:49:06.626Z,15.10
2023-05-11T17:51:34.393Z,15.10
2023-05-11T17:54:02.253Z,15.00
2023-05-11T17:56:30.216Z,14.90
2023-05-11T17:58:57.988Z,14.70
2023-05-11T18:01:27.421Z,14.80
2023-05-11T18:03:55.476Z,14.70
2023-05-11T18:06:23.565Z,14.60
2023-05-11T18:08:52.014Z,14.50
2023-05-11T18:11:19.782Z,14.50
2023-05-11T18:13:47.529Z,14.50
2023-05-11T18:16:15.651Z,14.50
2023-05-11T18:18:43.414Z,14.40
2023-05-11T18:21:11.361Z,14.40
2023-05-11T18:23:39.242Z,14.50
2023-05-11T18:26:07.785Z,14.50
2023-05-11T18:28:35.442Z,14.60
2023-05-11T18:31:03.200Z,14.70
2023-05-11T18:33:30.978Z,14.80
2023-05-11T18:35:58.869Z,14.70
2023-05-11T18:38:27.199Z,14.50
2023-05-11T18:40:56.295Z,14.40
2023-05-11T18:43:24.023Z,14.20
2023-05-11T18:45:52.870Z,14.10
2023-05-11T18:48:21.496Z,14.00
2023-05-11T18:50:56.227Z,14.00
2023-05-11T18:53:24.381Z,13.90
2023-05-11T18:55:53.831Z,13.80
2023-05-11T18:58:21.834Z,13.80
2023-05-11T19:00:51.574Z,13.70
2023-05-11T19:03:20.818Z,13.60
2023-05-11T19:05:50.517Z,13.40
2023-05-11T19:08:19.121Z,13.30
2023-05-11T19:10:48.187Z,13.20
2023-05-11T19:13:16.106Z,13.20
2023-05-11T19:15:44.649Z,13.10
2023-05-11T19:18:12.420Z,13.00
2023-05-11T19:20:40.177Z,12.90
2023-05-11T19:23:07.827Z,12.90
2023-05-11T19:25:35.524Z,12.80
2023-05-11T19:28:03.854Z,12.80
2023-05-11T19:30:31.675Z,12.80
2023-05-11T19:32:59.585Z,12.70
2023-05-11T19:35:28.296Z,12.70
2023-05-11T19:37:55.993Z,12.70
2023-05-11T19:42:55.923Z,12.60
2023-05-11T19:45:23.901Z,12.50
2023-05-11T19:47:51.615Z,12.40
2023-05-11T19:50:21.782Z,12.30
2023-05-11T19:52:52.124Z,12.30
2023-05-11T19:55:19.832Z,12.30
2023-05-11T19:57:47.926Z,12.30
2023-05-11T20:00:18.316Z,12.30
2023-05-11T20:02:46.739Z,12.30
2023-05-11T20:05:15.854Z,12.30
2023-05-11T20:07:43.863Z,12.20
2023-05-11T20:10:12.630Z,12.20
2023-05-11T20:12:40.552Z,12.20
2023-05-11T20:15:09.134Z,12.10
2023-05-11T20:17:37.317Z,12.10
2023-05-11T20:20:06.412Z,12.10
2023-05-11T20:22:34.312Z,12.10
2023-05-11T20:25:03.546Z,12.10
2023-05-11T20:27:31.424Z,12.10
2023-05-11T20:29:59.237Z,12.10
2023-05-11T20:32:27.077Z,12.00
2023-05-11T20:34:54.712Z,12.00
2023-05-11T20:37:22.417Z,12.00
2023-05-11T20:39:50.299Z,11.90
2023-05-11T20:42:17.963Z,11.90
2023-05-11T20:44:51.704Z,11.90
2023-05-11T20:47:20.053Z,11.80
2023-05-11T20:49:47.945Z,11.80
2023-05-11T20:52:15.719Z,11.80
2023-05-11T20:54:43.364Z,11.80
2023-05-11T20:57:11.104Z,11.70
2023-05-11T21:02:09.501Z,11.80
2023-05-11T21:04:38.903Z,11.80
2023-05-11T21:07:06.744Z,11.70
2023-05-11T21:09:35.051Z,11.70
2023-05-11T21:12:02.729Z,11.70
2023-05-11T21:14:30.755Z,11.70
2023-05-11T21:16:58.479Z,11.70
2023-05-11T21:19:26.270Z,11.70
2023-05-11T21:21:54.005Z,11.70
2023-05-11T21:24:22.112Z,11.70
2023-05-11T21:26:49.780Z,11.80
2023-05-11T21:29:17.869Z,11.70
2023-05-11T21:31:45.539Z,11.70
2023-05-11T21:34:13.317Z,11.70
2023-05-11T21:36:41.474Z,11.70
2023-05-11T21:39:09.266Z,11.70
2023-05-11T21:41:36.914Z,11.60
2023-05-11T21:44:04.827Z,11.70
2023-05-11T21:46:32.810Z,11.70
2023-05-11T21:49:00.546Z,11.70
2023-05-11T21:51:28.235Z,11.60
2023-05-11T21:53:55.921Z,11.60
2023-05-11T21:56:23.633Z,11.60
2023-05-11T21:58:51.355Z,11.60
2023-05-11T22:01:19.057Z,11.60
2023-05-11T22:03:46.807Z,11.60
2023-05-11T22:06:14.733Z,11.60
2023-05-11T22:08:42.359Z,11.60
2023-05-11T22:11:10.098Z,11.60
2023-05-11T22:13:37.849Z,11.60
2023-05-11T22:16:06.375Z,11.60
2023-05-11T22:18:34.151Z,11.60
2023-05-11T22:21:01.921Z,11.60
2023-05-11T22:23:29.811Z,11.50
2023-05-11T22:25:57.549Z,11.50
2023-05-11T22:28:25.189Z,11.50
2023-05-11T22:30:52.856Z,11.50
2023-05-11T22:33:20.663Z,11.50
2023-05-11T22:35:48.300Z,11.50
2023-05-11T22:38:15.934Z,11.50
2023-05-11T22:40:43.721Z,11.50
2023-05-11T22:43:11.400Z,11.50
2023-05-11T22:45:39.090Z,11.50
2023-05-11T22:48:07.626Z,11.50
2023-05-11T22:50:35.789Z,11.50
2023-05-11T22:53:03.495Z,11.50
2023-05-11T22:55:31.228Z,11.50
2023-05-11T22:57:58.831Z,11.50
2023-05-11T23:00:27.424Z,11.50
2023-05-11T23:02:55.173Z,11.50
2023-05-11T23:05:23.142Z,11.50
2023-05-11T23:07:50.924Z,11.50
2023-05-11T23:10:18.831Z,11.50
2023-05-11T23:12:47.258Z,11.50
2023-05-11T23:15:15.102Z,11.50
2023-05-11T23:17:42.879Z,11.60
2023-05-11T23:20:11.518Z,11.60
2023-05-11T23:22:39.319Z,11.60
2023-05-11T23:25:07.699Z,11.60
2023-05-11T23:27:35.347Z,11.70
2023-05-11T23:30:03.936Z,11.70
2023-05-11T23:32:31.898Z,11.70
2023-05-11T23:34:59.640Z,11.80
2023-05-11T23:37:27.284Z,11.80
2023-05-11T23:39:55.212Z,11.90
2023-05-11T23:42:22.945Z,11.90
2023-05-11T23:44:50.705Z,11.90
2023-05-11T23:47:18.455Z,11.90
2023-05-11T23:49:46.218Z,11.90
2023-05-11T23:52:13.882Z,12.00
2023-05-11T23:54:41.677Z,12.00
2023-05-11T23:57:09.423Z,12.00
2023-05-11T23:59:37.132Z,12.00
